Time;durP1;ratioP1;P1;durP2;ratioP2;P2;SDS_P1;SDS_P2;PMS_P1;PMS_P2;Temp;Humidity;BMP_temperature;BMP_pressure;BME280_temperature;BME280_humidity;BME280_pressure;Samples;Min_cycle;Max_cycle;Signal;HPM_P1;HPM_P2
2022/06/22 00:02:04;;;;;;;2.57;2.37;;;21.60;91.00;;;;;;5047885;28;20626;-89
2022/06/22 00:04:36;;;;;;;4.10;3.70;;;21.50;91.20;;;;;;5048088;28;20690;-90
2022/06/22 00:07:07;;;;;;;3.60;3.30;;;21.60;91.00;;;;;;5047389;28;20605;-90
2022/06/22 00:09:36;;;;;;;3.63;3.33;;;21.60;91.40;;;;;;5047205;28;20709;-90
2022/06/22 00:12:05;;;;;;;2.87;2.67;;;21.60;91.30;;;;;;5047738;28;20915;-89
2022/06/22 00:14:43;;;;;;;3.60;3.40;;;21.60;91.90;;;;;;5047942;28;20618;-90
2022/06/22 00:17:19;;;;;;;2.83;2.63;;;21.60;91.30;;;;;;5047568;28;20842;-89
2022/06/22 00:19:47;;;;;;;2.70;2.50;;;;;;;;;;5047291;28;20625;-90
2022/06/22 00:22:19;;;;;;;3.00;2.80;;;21.60;91.60;;;;;;5047517;28;20984;-90
2022/06/22 00:24:47;;;;;;;3.53;3.23;;;21.50;92.20;;;;;;5047546;28;20646;-90
2022/06/22 00:27:20;;;;;;;3.57;3.27;;;21.50;91.90;;;;;;5047482;28;20625;-90
2022/06/22 00:30:18;;;;;;;2.80;2.47;;;21.40;92.80;;;;;;5046922;28;20650;-89
2022/06/22 00:33:02;;;;;;;2.97;2.77;;;21.40;93.10;;;;;;5044357;28;20724;-89
2022/06/22 00:35:49;;;;;;;3.83;3.53;;;21.20;93.40;;;;;;5051537;28;20613;-90
2022/06/22 00:38:20;;;;;;;3.17;2.97;;;21.00;93.90;;;;;;5051220;28;20606;-88
2022/06/22 00:40:52;;;;;;;2.67;2.47;;;21.10;94.10;;;;;;5051570;28;20630;-91
2022/06/22 00:43:20;;;;;;;4.90;3.07;;;21.20;93.30;;;;;;5051845;28;21087;-89
2022/06/22 00:45:49;;;;;;;3.93;3.53;;;21.10;93.50;;;;;;5051277;28;20617;-89
2022/06/22 00:48:27;;;;;;;3.83;3.43;;;21.10;93.90;;;;;;5050616;28;20728;-90
2022/06/22 00:51:00;;;;;;;3.67;3.00;;;21.00;93.80;;;;;;5050953;28;21142;-88
2022/06/22 00:53:36;;;;;;;3.33;3.03;;;21.00;94.10;;;;;;5051015;28;20606;-89
2022/06/22 00:56:15;;;;;;;3.63;3.33;;;21.00;94.10;;;;;;5050215;28;20608;-89
2022/06/22 00:58:53;;;;;;;3.47;3.20;;;21.10;94.10;;;;;;5050412;28;20629;-91
2022/06/22 01:01:24;;;;;;;3.40;3.10;;;21.20;94.00;;;;;;5051012;28;20621;-90
2022/06/22 01:04:00;;;;;;;4.17;3.63;;;21.10;94.20;;;;;;5050390;28;20649;-89
2022/06/22 01:06:33;;;;;;;3.50;3.20;;;21.20;94.30;;;;;;5048557;28;21000;-90
2022/06/22 01:09:06;;;;;;;3.97;3.67;;;21.10;94.20;;;;;;5049889;28;20621;-89
2022/06/22 01:14:29;;;;;;;4.37;3.97;;;21.10;94.70;;;;;;5050560;28;20594;-88
2022/06/22 01:16:59;;;;;;;3.40;2.80;;;21.10;94.70;;;;;;5050185;28;20618;-89
2022/06/22 01:19:43;;;;;;;3.83;2.83;;;21.10;94.90;;;;;;5049821;28;21033;-89
2022/06/22 01:22:23;;;;;;;3.67;3.20;;;21.10;94.80;;;;;;5050919;28;20620;-88
2022/06/22 01:25:04;;;;;;;3.40;3.10;;;21.00;95.40;;;;;;5050078;28;20752;-90
2022/06/22 01:27:36;;;;;;;2.90;2.70;;;21.00;95.70;;;;;;5049720;28;20621;-90
2022/06/22 01:30:20;;;;;;;3.10;2.90;;;20.90;96.20;;;;;;5049788;28;21329;-89
2022/06/22 01:32:50;;;;;;;3.43;3.23;;;20.90;96.30;;;;;;5050456;28;20707;-90
2022/06/22 01:35:21;;;;;;;3.30;3.10;;;20.80;96.60;;;;;;5050246;28;21189;-89
2022/06/22 01:37:49;;;;;;;3.67;3.20;;;20.80;97.20;;;;;;5049715;28;20597;-90
2022/06/22 01:40:19;;;;;;;3.57;3.27;;;20.70;97.70;;;;;;5049705;28;20626;-89
2022/06/22 01:42:55;;;;;;;3.37;3.17;;;20.70;97.10;;;;;;5049645;28;20982;-89
2022/06/22 01:45:41;;;;;;;4.73;3.73;;;20.60;97.30;;;;;;5049864;28;20645;-89
2022/06/22 01:48:14;;;;;;;3.60;3.30;;;20.60;97.60;;;;;;5049773;28;20601;-90
2022/06/22 01:50:47;;;;;;;3.40;3.17;;;20.60;98.20;;;;;;5049597;28;20630;-89
2022/06/22 01:53:24;;;;;;;3.30;3.00;;;20.50;98.20;;;;;;5049528;28;20610;-89
2022/06/22 01:55:58;;;;;;;4.03;3.13;;;20.50;98.20;;;;;;5048782;28;20679;-89
2022/06/22 01:58:35;;;;;;;3.00;2.80;;;20.50;98.50;;;;;;5049582;28;20609;-90
2022/06/22 02:01:10;;;;;;;2.83;2.63;;;20.60;98.00;;;;;;5049789;28;20656;-90
2022/06/22 02:03:43;;;;;;;3.13;2.87;;;20.50;98.10;;;;;;5049576;28;21213;-89
2022/06/22 02:09:22;;;;;;;4.33;3.93;;;20.80;98.00;;;;;;5006477;28;20616;-90
2022/06/22 02:12:18;;;;;;;4.10;3.80;;;20.80;97.90;;;;;;5006948;28;20670;-90
2022/06/22 02:14:47;;;;;;;3.40;3.00;;;20.50;98.40;;;;;;5034727;28;20636;-89
2022/06/22 02:17:17;;;;;;;4.57;4.17;;;20.60;98.70;;;;;;5048788;28;20629;-89
2022/06/22 02:19:45;;;;;;;4.37;3.87;;;20.40;99.00;;;;;;5049163;28;20709;-90
2022/06/22 02:22:14;;;;;;;3.40;3.10;;;20.30;99.50;;;;;;5049506;28;20621;-89
2022/06/22 02:24:46;;;;;;;3.67;3.30;;;20.30;99.60;;;;;;5049036;28;20638;-90
2022/06/22 02:27:17;;;;;;;3.53;2.77;;;20.50;99.50;;;;;;5049064;28;21118;-89
2022/06/22 02:29:49;;;;;;;3.73;3.43;;;20.50;99.70;;;;;;5048890;28;20610;-89
2022/06/22 02:32:18;;;;;;;3.00;2.80;;;20.50;99.60;;;;;;5048116;28;20707;-91
2022/06/22 02:34:49;;;;;;;5.47;4.30;;;20.60;99.40;;;;;;5049092;28;20619;-88
2022/06/22 02:37:18;;;;;;;4.10;3.80;;;20.50;99.90;;;;;;5048763;28;20699;-89
2022/06/22 02:39:49;;;;;;;4.73;3.70;;;20.60;99.80;;;;;;5048804;28;20633;-89
2022/06/22 02:45:04;;;;;;;4.37;3.97;;;20.50;99.90;;;;;;5048882;28;20799;-90
2022/06/22 02:47:32;;;;;;;4.33;3.93;;;20.60;99.90;;;;;;5048235;28;20606;-90
2022/06/22 02:50:03;;;;;;;4.00;3.40;;;20.70;99.90;;;;;;5048431;28;20929;-89
2022/06/22 02:52:38;;;;;;;3.73;3.40;;;20.70;99.90;;;;;;5048370;28;20594;-90
2022/06/22 02:55:12;;;;;;;5.67;3.80;;;20.60;99.90;;;;;;5048842;28;20938;-89
2022/06/22 02:57:47;;;;;;;3.87;3.53;;;20.50;99.90;;;;;;5047627;28;20676;-89
2022/06/22 03:00:16;;;;;;;4.10;3.37;;;20.40;99.90;;;;;;5048303;28;20688;-89
2022/06/22 03:02:44;;;;;;;3.50;3.20;;;20.30;99.90;;;;;;5048851;28;20630;-90
2022/06/22 03:05:13;;;;;;;3.87;3.47;;;20.30;99.90;;;;;;5048165;28;20653;-92
2022/06/22 03:07:44;;;;;;;5.03;3.60;;;20.40;99.90;;;;;;5048325;28;20605;-89
2022/06/22 03:10:22;;;;;;;3.60;3.10;;;20.30;99.90;;;;;;5048370;28;20717;-91
2022/06/22 03:12:49;;;;;;;3.50;3.20;;;20.30;99.90;;;;;;5048600;28;20933;-89
2022/06/22 03:15:22;;;;;;;3.40;3.17;;;20.40;99.90;;;;;;5048332;28;20614;-90
2022/06/22 03:17:49;;;;;;;3.03;2.60;;;;;;;;;;5048498;28;20610;-89
2022/06/22 03:20:19;;;;;;;4.30;3.23;;;20.20;99.90;;;;;;5047898;28;20633;-89
2022/06/22 03:22:51;;;;;;;4.40;3.40;;;20.30;99.90;;;;;;5047982;28;20654;-90
2022/06/22 03:25:23;;;;;;;4.30;4.00;;;20.30;99.90;;;;;;5048273;28;20653;-89
2022/06/22 03:27:53;;;;;;;3.83;3.50;;;20.20;99.90;;;;;;5048108;28;20606;-90
2022/06/22 03:30:26;;;;;;;3.20;3.00;;;20.20;99.90;;;;;;5047882;28;20615;-90
2022/06/22 03:32:57;;;;;;;6.37;4.47;;;20.10;99.90;;;;;;5048314;28;20618;-89
2022/06/22 03:35:28;;;;;;;3.30;3.10;;;20.20;99.90;;;;;;5047709;28;20606;-89
2022/06/22 03:38:01;;;;;;;4.03;3.63;;;20.20;99.90;;;;;;5048023;28;20609;-89
2022/06/22 03:40:33;;;;;;;4.07;3.77;;;20.20;99.90;;;;;;5047264;28;21505;-89
2022/06/22 03:43:07;;;;;;;3.90;3.60;;;20.20;99.90;;;;;;5048213;28;20614;-89
2022/06/22 03:45:41;;;;;;;3.83;3.50;;;20.30;99.90;;;;;;5047471;28;20641;-89
2022/06/22 03:48:13;;;;;;;3.67;3.30;;;20.30;99.90;;;;;;5048064;28;20621;-89
2022/06/22 03:50:49;;;;;;;4.30;3.90;;;20.40;99.90;;;;;;5047496;28;20618;-90
2022/06/22 03:53:22;;;;;;;4.30;3.63;;;20.40;99.90;;;;;;5048165;28;21007;-89
2022/06/22 03:55:55;;;;;;;3.63;3.33;;;20.40;99.90;;;;;;5048100;28;20618;-89
2022/06/22 03:58:25;;;;;;;5.73;4.97;;;20.30;99.90;;;;;;5048304;28;20641;-89
2022/06/22 04:00:54;;;;;;;4.53;4.13;;;20.30;99.90;;;;;;5047574;28;20656;-87
2022/06/22 04:03:21;;;;;;;4.27;3.87;;;19.90;99.90;;;;;;5048137;28;20613;-88
2022/06/22 04:05:51;;;;;;;3.63;3.33;;;20.00;99.90;;;;;;5050758;28;20986;-90
2022/06/22 04:08:24;;;;;;;4.30;3.00;;;20.00;99.90;;;;;;5051922;28;20609;-89
2022/06/22 04:10:57;;;;;;;4.40;4.00;;;20.10;99.90;;;;;;5051195;28;20614;-89
2022/06/22 04:13:36;;;;;;;3.80;3.50;;;20.10;99.90;;;;;;5051752;28;20648;-89
2022/06/22 04:16:09;;;;;;;4.27;3.87;;;20.20;99.90;;;;;;5051295;28;20885;-88
2022/06/22 04:18:43;;;;;;;4.17;3.77;;;20.30;99.90;;;;;;5051427;28;21259;-89
2022/06/22 04:21:14;;;;;;;4.20;3.90;;;20.40;99.90;;;;;;5051318;28;20698;-89
2022/06/22 04:23:45;;;;;;;3.13;2.90;;;20.20;99.90;;;;;;5051735;28;20613;-89
2022/06/22 04:26:17;;;;;;;4.07;3.67;;;20.30;99.90;;;;;;5051016;28;21015;-90
2022/06/22 04:28:48;;;;;;;4.20;3.60;;;20.40;99.90;;;;;;5051278;28;20636;-90
2022/06/22 04:31:21;;;;;;;3.97;3.57;;;20.40;99.90;;;;;;5051331;28;20618;-89
2022/06/22 04:33:52;;;;;;;3.83;3.50;;;20.30;99.90;;;;;;5051329;28;20733;-89
2022/06/22 04:36:23;;;;;;;3.27;3.00;;;20.30;99.90;;;;;;5050826;28;20983;-90
2022/06/22 04:38:57;;;;;;;4.10;3.70;;;20.30;99.90;;;;;;5051012;28;20618;-89
2022/06/22 04:41:30;;;;;;;3.23;3.03;;;20.30;99.90;;;;;;5051164;28;20624;-90
2022/06/22 04:44:00;;;;;;;5.23;3.53;;;20.30;99.90;;;;;;5051050;28;20602;-89
2022/06/22 04:46:32;;;;;;;4.03;3.63;;;20.40;99.90;;;;;;5050783;28;20618;-89
2022/06/22 04:49:03;;;;;;;4.30;3.90;;;20.40;99.90;;;;;;5050574;28;20621;-89
2022/06/22 04:51:33;;;;;;;4.20;3.90;;;20.50;99.90;;;;;;5050812;28;20626;-90
2022/06/22 04:54:07;;;;;;;4.33;4.00;;;20.50;99.90;;;;;;5051322;28;20626;-89
2022/06/22 04:56:39;;;;;;;4.43;4.00;;;20.40;99.90;;;;;;5050192;28;20618;-89
2022/06/22 04:59:12;;;;;;;4.67;4.17;;;20.50;99.90;;;;;;5050488;28;20618;-89
2022/06/22 05:01:44;;;;;;;4.60;4.20;;;20.50;99.90;;;;;;5051057;28;20621;-89
2022/06/22 05:04:16;;;;;;;5.87;4.70;;;20.50;99.90;;;;;;5050970;28;20618;-90
2022/06/22 05:07:02;;;;;;;5.13;3.97;;;20.60;99.90;;;;;;5050440;28;20613;-89
2022/06/22 05:09:35;;;;;;;5.80;4.00;;;20.60;99.90;;;;;;5050405;28;20713;-89
2022/06/22 05:12:03;;;;;;;3.40;3.20;;;20.70;99.90;;;;;;5050684;28;20709;-88
2022/06/22 05:14:33;;;;;;;4.10;3.70;;;20.70;99.90;;;;;;5050789;28;20652;-89
2022/06/22 05:17:04;;;;;;;4.73;4.23;;;20.60;99.90;;;;;;5049656;28;20612;-89
2022/06/22 05:19:36;;;;;;;5.63;4.77;;;20.70;99.90;;;;;;5049977;28;20637;-89
2022/06/22 05:22:11;;;;;;;5.03;4.53;;;20.70;99.90;;;;;;5050562;28;21191;-88
2022/06/22 05:24:43;;;;;;;4.30;4.00;;;;;;;;;;5050498;28;20637;-89
2022/06/22 05:27:14;;;;;;;5.40;4.90;;;20.70;99.90;;;;;;5050193;28;20613;-89
2022/06/22 05:29:46;;;;;;;3.97;3.60;;;21.00;99.90;;;;;;5049605;28;20634;-89
2022/06/22 05:32:27;;;;;;;4.47;4.10;;;21.10;99.90;;;;;;5050684;28;20614;-89
2022/06/22 05:34:56;;;;;;;4.13;3.73;;;21.20;99.90;;;;;;5050971;28;20602;-89
2022/06/22 05:37:28;;;;;;;4.83;4.20;;;21.10;99.90;;;;;;5049832;28;20610;-89
2022/06/22 05:40:13;;;;;;;4.87;4.57;;;21.30;99.90;;;;;;5049485;28;21569;-90
2022/06/22 05:42:40;;;;;;;4.37;3.97;;;;;;;;;;5030513;28;20629;-89
2022/06/22 05:45:16;;;;;;;4.33;3.77;;;21.50;99.90;;;;;;5030290;28;20733;-89
2022/06/22 05:47:47;;;;;;;4.57;4.13;;;21.80;99.90;;;;;;5029847;28;20602;-89
2022/06/22 05:50:27;;;;;;;4.47;4.07;;;21.60;99.90;;;;;;5042973;28;20618;-89
2022/06/22 05:52:59;;;;;;;4.87;4.50;;;21.60;99.90;;;;;;5049325;28;20618;-89
2022/06/22 05:55:32;;;;;;;4.60;3.57;;;21.50;99.90;;;;;;5050142;28;20610;-89
2022/06/22 05:58:02;;;;;;;4.07;3.77;;;21.60;99.90;;;;;;5048985;28;20720;-89
2022/06/22 06:00:38;;;;;;;4.07;3.63;;;21.50;99.90;;;;;;5049527;28;20622;-89
2022/06/22 06:03:36;;;;;;;5.00;4.07;;;22.70;99.90;;;;;;5049515;28;20618;-89
2022/06/22 06:06:12;;;;;;;3.77;3.47;;;21.70;99.90;;;;;;5047874;28;20662;-88
2022/06/22 06:08:43;;;;;;;3.97;3.67;;;21.70;99.90;;;;;;5049522;28;20637;-89
2022/06/22 06:11:17;;;;;;;4.60;4.20;;;21.60;99.90;;;;;;5029486;28;20614;-89
2022/06/22 06:13:50;;;;;;;5.17;3.90;;;21.70;99.90;;;;;;5029276;28;20634;-89
2022/06/22 06:16:23;;;;;;;8.10;4.70;;;21.60;99.90;;;;;;5029188;28;20607;-88
2022/06/22 06:18:56;;;;;;;3.83;3.53;;;21.60;99.90;;;;;;5029832;28;20611;-89
2022/06/22 06:21:26;;;;;;;4.73;4.23;;;21.70;99.90;;;;;;5049065;28;20679;-89
2022/06/22 06:23:56;;;;;;;4.77;4.20;;;21.70;99.90;;;;;;5049162;28;21079;-89
2022/06/22 06:29:22;;;;;;;4.60;4.20;;;21.80;99.90;;;;;;5047848;28;20621;-88
2022/06/22 06:32:01;;;;;;;4.00;3.70;;;21.70;99.90;;;;;;5049134;28;20626;-88
2022/06/22 06:34:36;;;;;;;3.53;3.23;;;21.70;99.90;;;;;;5048914;28;21049;-89
2022/06/22 06:37:11;;;;;;;4.63;4.33;;;21.70;99.90;;;;;;5048864;28;20601;-88
2022/06/22 06:39:44;;;;;;;4.40;4.03;;;21.60;99.90;;;;;;5048508;28;20613;-89
2022/06/22 06:42:30;;;;;;;5.27;4.13;;;21.70;99.90;;;;;;5049037;28;20688;-88
2022/06/22 06:45:03;;;;;;;7.40;5.03;;;21.50;99.90;;;;;;5048351;28;20661;-91
2022/06/22 06:47:34;;;;;;;3.50;3.20;;;21.50;99.90;;;;;;5048653;28;21157;-87
2022/06/22 06:50:09;;;;;;;4.23;3.83;;;21.40;99.90;;;;;;5048311;28;20721;-88
2022/06/22 06:52:45;;;;;;;3.70;3.40;;;21.20;99.90;;;;;;5049061;28;20617;-88
2022/06/22 06:55:22;;;;;;;4.60;3.60;;;21.00;99.90;;;;;;5048460;28;20625;-88
2022/06/22 06:57:59;;;;;;;5.17;3.47;;;21.00;99.90;;;;;;5048213;28;20976;-88
2022/06/22 07:00:36;;;;;;;4.40;3.80;;;21.10;99.90;;;;;;5048623;28;20698;-88
2022/06/22 07:03:07;;;;;;;6.20;5.70;;;20.80;99.90;;;;;;5048643;28;20812;-89
2022/06/22 07:05:35;;;;;;;4.40;3.83;;;20.70;99.90;;;;;;5048189;28;20715;-87
2022/06/22 07:08:12;;;;;;;5.07;4.57;;;20.60;99.90;;;;;;5048338;28;20614;-89
2022/06/22 07:10:43;;;;;;;3.73;3.43;;;20.60;99.90;;;;;;5049243;28;20622;-90
2022/06/22 07:13:16;;;;;;;4.33;3.47;;;20.60;99.90;;;;;;5049039;28;20613;-88
2022/06/22 07:15:49;;;;;;;3.77;3.47;;;20.50;99.90;;;;;;5048989;28;20614;-88
2022/06/22 07:18:21;;;;;;;3.30;3.00;;;20.50;99.90;;;;;;5048921;28;20664;-88
2022/06/22 07:20:55;;;;;;;4.10;3.80;;;20.50;99.90;;;;;;5048104;28;21216;-87
2022/06/22 07:23:28;;;;;;;5.10;4.37;;;20.40;99.90;;;;;;5048917;28;20618;-91
2022/06/22 07:26:18;;;;;;;4.50;4.10;;;20.50;99.90;;;;;;5048235;28;20654;-89
2022/06/22 07:28:54;;;;;;;4.80;4.23;;;20.50;99.90;;;;;;5048496;28;20602;-89
2022/06/22 07:31:25;;;;;;;5.00;4.30;;;20.40;99.90;;;;;;5048556;28;21051;-90
2022/06/22 07:34:00;;;;;;;4.73;4.33;;;20.50;99.90;;;;;;5048700;28;20717;-90
2022/06/22 07:36:34;;;;;;;5.10;4.07;;;20.50;99.90;;;;;;5048326;28;20597;-88
2022/06/22 07:39:07;;;;;;;5.27;4.77;;;20.60;99.90;;;;;;5049066;28;20652;-87
2022/06/22 07:41:35;;;;;;;5.43;4.93;;;20.60;99.90;;;;;;5055822;28;20726;-89
2022/06/22 07:44:05;;;;;;;4.33;4.00;;;20.50;99.90;;;;;;5056407;28;21183;-89
2022/06/22 07:46:40;;;;;;;5.87;4.87;;;20.60;99.90;;;;;;5054501;28;21215;-89
2022/06/22 07:49:11;;;;;;;5.17;4.77;;;20.80;99.90;;;;;;5054491;28;20621;-89
2022/06/22 07:51:47;;;;;;;4.47;4.07;;;20.70;99.90;;;;;;5055037;28;20625;-90
2022/06/22 07:54:20;;;;;;;5.77;5.17;;;20.80;99.90;;;;;;5055042;28;20645;-88
2022/06/22 07:57:11;;;;;;;5.50;4.63;;;20.90;99.90;;;;;;5053150;28;21212;-89
2022/06/22 07:59:44;;;;;;;5.00;4.50;;;21.10;99.90;;;;;;5054557;28;20675;-88
2022/06/22 08:02:16;;;;;;;5.40;4.90;;;21.20;99.90;;;;;;5054577;28;20729;-89
2022/06/22 08:04:49;;;;;;;4.43;4.03;;;21.20;99.90;;;;;;5054813;28;20637;-89
2022/06/22 08:07:21;;;;;;;4.30;3.90;;;21.30;99.90;;;;;;5054558;28;21135;-87
2022/06/22 08:10:01;;;;;;;5.40;4.47;;;21.30;99.90;;;;;;5054121;28;21020;-87
2022/06/22 08:12:33;;;;;;;5.80;4.87;;;21.30;99.90;;;;;;5054050;28;20625;-89
2022/06/22 08:15:04;;;;;;;4.07;3.70;;;21.30;99.90;;;;;;5055031;28;20622;-90
2022/06/22 08:17:41;;;;;;;5.43;4.47;;;21.20;99.90;;;;;;5054253;28;20621;-90
2022/06/22 08:20:11;;;;;;;3.93;3.63;;;21.40;99.90;;;;;;5053736;28;20617;-86
2022/06/22 08:22:42;;;;;;;4.60;4.17;;;21.50;99.90;;;;;;5054411;28;21263;-90
2022/06/22 08:25:13;;;;;;;4.70;4.30;;;21.50;99.90;;;;;;5054156;28;20644;-88
2022/06/22 08:27:40;;;;;;;4.47;4.07;;;21.30;99.90;;;;;;5053979;28;21075;-88
2022/06/22 08:30:10;;;;;;;4.13;3.73;;;21.50;99.90;;;;;;5053500;28;21204;-88
2022/06/22 08:32:41;;;;;;;4.03;3.63;;;21.30;99.90;;;;;;5054124;28;20626;-87
2022/06/22 08:35:12;;;;;;;6.30;4.20;;;21.20;99.90;;;;;;5054024;28;20734;-88
2022/06/22 08:37:48;;;;;;;4.20;3.80;;;21.20;99.90;;;;;;5054132;28;20655;-88
2022/06/22 08:40:25;;;;;;;4.33;3.70;;;21.20;99.90;;;;;;5053798;28;20664;-91
2022/06/22 08:47:25;;;;;;;4.57;4.20;;;21.00;99.90;;;;;;4995125;28;20713;-89
2022/06/22 09:05:23;;;;;;;5.13;4.73;;;21.30;99.90;;;;;;4880079;29;20640;-88
2022/06/22 09:08:31;;;;;;;4.40;4.00;;;21.30;99.90;;;;;;4836745;29;20627;-91
2022/06/22 09:18:16;;;;;;;4.30;4.00;;;21.30;99.90;;;;;;4968620;28;21236;-91
2022/06/22 09:21:08;;;;;;;5.00;4.60;;;21.30;99.90;;;;;;4968817;28;20629;-88
2022/06/22 09:24:13;;;;;;;3.77;3.47;;;21.30;99.90;;;;;;5070121;28;20621;-91
2022/06/22 09:27:10;;;;;;;4.63;4.27;;;21.30;99.90;;;;;;5046854;28;20797;-87
2022/06/22 09:29:46;;;;;;;5.07;4.67;;;21.30;99.90;;;;;;5069895;28;21131;-87
2022/06/22 09:32:37;;;;;;;6.37;5.00;;;21.30;99.90;;;;;;5070152;28;20631;-89
2022/06/22 09:35:31;;;;;;;5.03;4.10;;;21.30;99.90;;;;;;5070406;28;21154;-88
2022/06/22 09:38:15;;;;;;;6.50;5.90;;;21.30;99.90;;;;;;5069170;28;20663;-88
2022/06/22 09:40:58;;;;;;;4.60;4.20;;;21.40;99.90;;;;;;5057997;28;20676;-89
2022/06/22 09:43:55;;;;;;;7.20;4.27;;;21.40;99.90;;;;;;5049645;28;20626;-89
2022/06/22 09:46:50;;;;;;;4.83;4.33;;;21.40;99.90;;;;;;5049266;28;21029;-87
2022/06/22 09:49:43;;;;;;;4.90;4.40;;;21.40;99.90;;;;;;5051152;28;20660;-88
2022/06/22 09:52:24;;;;;;;5.63;4.73;;;21.50;99.90;;;;;;5070072;28;21025;-89
2022/06/22 09:58:46;;;;;;;4.47;4.07;;;21.40;99.90;;;;;;5006986;28;20975;-88
2022/06/22 10:01:25;;;;;;;5.87;4.43;;;21.40;99.90;;;;;;5006428;28;20683;-88
2022/06/22 10:04:25;;;;;;;4.93;4.53;;;21.50;99.90;;;;;;5051042;28;20966;-87
2022/06/22 10:07:09;;;;;;;4.70;4.30;;;21.50;99.90;;;;;;5069028;28;20998;-88
2022/06/22 10:10:04;;;;;;;4.70;4.30;;;21.40;99.90;;;;;;5069155;28;20628;-88
2022/06/22 10:12:58;;;;;;;4.33;3.93;;;21.50;99.90;;;;;;5069627;28;20616;-88
2022/06/22 10:15:46;;;;;;;5.20;4.70;;;21.50;99.90;;;;;;5069007;28;20727;-87
2022/06/22 10:18:35;;;;;;;4.23;3.93;;;21.50;99.90;;;;;;5069373;28;20722;-89
2022/06/22 10:21:13;;;;;;;4.73;4.30;;;21.60;99.90;;;;;;5068864;28;20668;-89
2022/06/22 10:24:01;;;;;;;5.33;4.83;;;21.60;99.90;;;;;;5069392;28;20635;-88
2022/06/22 10:26:44;;;;;;;4.77;4.37;;;21.60;99.90;;;;;;5066333;28;20699;-89
2022/06/22 10:29:43;;;;;;;4.60;4.20;;;21.60;99.90;;;;;;5072913;28;20632;-88
2022/06/22 10:32:59;;;;;;;5.60;4.30;;;21.60;99.90;;;;;;5064401;28;21565;-87
2022/06/22 10:35:50;;;;;;;3.60;3.37;;;21.30;99.90;;;;;;5074573;28;20633;-88
2022/06/22 10:38:30;;;;;;;4.27;3.90;;;21.20;99.90;;;;;;5069259;28;20625;-87
2022/06/22 10:47:33;;;;;;;3.27;2.97;;;20.90;99.90;;;;;;5042089;28;21224;-87
2022/06/22 10:50:18;;;;;;;4.20;3.90;;;20.70;99.90;;;;;;5055257;28;20621;-88
2022/06/22 10:53:13;;;;;;;3.77;3.47;;;20.60;99.90;;;;;;5067982;28;20621;-88
2022/06/22 10:55:52;;;;;;;3.77;3.40;;;20.40;99.90;;;;;;5068790;28;20617;-88
2022/06/22 10:58:43;;;;;;;3.37;3.07;;;20.40;99.90;;;;;;5068655;28;21035;-89
2022/06/22 11:01:37;;;;;;;4.07;3.70;;;20.40;99.90;;;;;;5067777;28;20637;-89
2022/06/22 11:04:55;;;;;;;3.70;3.23;;;20.40;99.90;;;;;;5059498;28;21046;-90
2022/06/22 11:07:41;;;;;;;5.50;4.50;;;20.60;99.90;;;;;;5071025;28;21057;-89
2022/06/22 11:10:50;;;;;;;3.90;3.60;;;20.50;99.90;;;;;;5075248;28;20613;-89
2022/06/22 11:13:43;;;;;;;4.37;3.80;;;20.50;99.90;;;;;;5073374;28;20636;-90
2022/06/22 11:16:30;;;;;;;5.57;4.50;;;20.50;99.90;;;;;;5078238;28;21206;-90
2022/06/22 11:19:15;;;;;;;4.80;3.43;;;20.50;99.90;;;;;;5075758;28;21175;-92
2022/06/22 11:21:59;;;;;;;4.53;4.10;;;20.70;99.90;;;;;;5070314;28;20623;-92
2022/06/22 11:25:02;;;;;;;4.43;3.80;;;20.70;99.90;;;;;;5068923;28;20629;-90
2022/06/22 11:30:55;;;;;;;7.53;4.10;;;21.00;99.90;;;;;;5068040;28;20633;-90
2022/06/22 11:34:00;;;;;;;4.30;3.90;;;21.20;99.90;;;;;;5068590;28;20628;-91
2022/06/22 11:36:40;;;;;;;5.03;4.40;;;21.20;99.90;;;;;;5068458;28;20619;-90
2022/06/22 11:39:30;;;;;;;4.23;3.90;;;21.10;99.90;;;;;;5062000;28;20654;-89
2022/06/22 11:42:09;;;;;;;4.40;4.10;;;21.10;99.90;;;;;;5039444;28;20629;-89
2022/06/22 11:47:43;;;;;;;4.70;3.70;;;21.30;99.90;;;;;;5047164;28;20765;-90
2022/06/22 11:50:24;;;;;;;5.17;4.30;;;21.20;99.90;;;;;;5056345;28;20637;-89
2022/06/22 11:53:19;;;;;;;4.70;4.17;;;21.30;99.90;;;;;;5068752;28;20656;-89
2022/06/22 11:55:52;;;;;;;4.60;4.30;;;21.30;99.90;;;;;;5067887;28;20609;-91
2022/06/22 11:58:38;;;;;;;4.30;3.90;;;21.30;99.90;;;;;;5069220;28;20617;-89
2022/06/22 12:01:44;;;;;;;4.80;4.40;;;21.40;99.90;;;;;;5069241;28;20617;-89
2022/06/22 12:04:50;;;;;;;4.00;3.70;;;21.50;99.90;;;;;;5020723;28;21521;-89
2022/06/22 12:07:48;;;;;;;3.87;3.57;;;21.50;99.90;;;;;;5067745;28;21230;-89
2022/06/22 12:10:40;;;;;;;4.40;4.00;;;21.50;99.90;;;;;;5067192;28;21179;-89
2022/06/22 12:13:25;;;;;;;4.00;3.60;;;21.60;99.90;;;;;;5068149;28;20601;-89
2022/06/22 12:16:03;;;;;;;3.80;3.50;;;21.70;99.90;;;;;;5067472;28;21071;-90
2022/06/22 12:18:47;;;;;;;2.57;2.37;;;21.70;99.90;;;;;;5068056;28;20643;-90
2022/06/22 12:21:32;;;;;;;3.20;2.57;;;21.70;99.90;;;;;;5067359;28;20980;-89
2022/06/22 12:24:10;;;;;;;2.17;2.07;;;21.80;99.90;;;;;;5067864;28;20609;-89
2022/06/22 12:26:51;;;;;;;2.50;2.30;;;21.80;99.90;;;;;;5068588;28;20649;-89
2022/06/22 12:29:46;;;;;;;2.40;2.20;;;21.70;99.90;;;;;;5071274;28;20694;-87
2022/06/22 12:32:21;;;;;;;2.80;2.60;;;21.80;99.90;;;;;;5068225;28;20657;-89
2022/06/22 12:35:00;;;;;;;2.33;2.13;;;21.90;99.90;;;;;;5071151;28;20730;-89
2022/06/22 12:37:31;;;;;;;7.20;3.00;;;21.90;99.90;;;;;;5071319;28;20632;-89
2022/06/22 12:40:05;;;;;;;2.20;1.80;;;21.90;99.90;;;;;;5063623;28;20632;-89
2022/06/22 12:42:50;;;;;;;2.30;1.93;;;21.90;99.90;;;;;;5031713;28;20622;-89
2022/06/22 12:45:42;;;;;;;2.57;2.30;;;21.80;99.90;;;;;;5031272;28;20621;-89
2022/06/22 12:49:03;;;;;;;2.60;1.97;;;21.80;99.90;;;;;;5031136;28;20698;-89
2022/06/22 12:51:36;;;;;;;2.03;1.70;;;21.80;99.90;;;;;;5050534;28;21102;-89
2022/06/22 12:54:07;;;;;;;3.37;2.80;;;21.80;99.90;;;;;;5071661;28;20682;-89
2022/06/22 12:56:41;;;;;;;2.27;2.17;;;21.60;99.90;;;;;;5070594;28;21167;-89
2022/06/22 12:59:18;;;;;;;2.77;2.13;;;21.70;99.90;;;;;;5071941;28;20617;-89
2022/06/22 13:01:46;;;;;;;3.13;2.20;;;21.70;99.90;;;;;;5071529;28;21197;-88
2022/06/22 13:04:18;;;;;;;2.30;2.10;;;21.80;99.90;;;;;;5071797;28;20635;-89
2022/06/22 13:06:53;;;;;;;4.10;2.17;;;22.20;99.90;;;;;;5072854;28;20613;-90
2022/06/22 13:09:21;;;;;;;3.23;2.93;;;22.00;99.90;;;;;;5073631;28;20593;-91
2022/06/22 13:11:51;;;;;;;2.50;2.30;;;22.00;99.90;;;;;;5073104;28;21147;-90
2022/06/22 13:14:32;;;;;;;3.07;2.33;;;22.00;99.90;;;;;;5071812;28;20612;-90
2022/06/22 13:17:13;;;;;;;2.40;2.20;;;21.90;99.90;;;;;;5070999;28;20652;-90
2022/06/22 13:19:53;;;;;;;1.97;1.87;;;22.00;99.90;;;;;;5071009;28;20702;-90
2022/06/22 13:22:27;;;;;;;1.87;1.77;;;22.10;99.90;;;;;;5071447;28;20616;-90
2022/06/22 13:25:03;;;;;;;1.60;1.50;;;21.90;99.90;;;;;;5070824;28;20646;-90
2022/06/22 13:27:46;;;;;;;1.83;1.33;;;22.00;99.90;;;;;;5070393;28;21310;-90
2022/06/22 13:30:19;;;;;;;1.63;1.40;;;21.70;99.90;;;;;;5070132;28;20627;-90
2022/06/22 13:32:53;;;;;;;6.70;1.87;;;21.70;99.90;;;;;;5071734;28;20713;-90
2022/06/22 13:35:25;;;;;;;2.00;1.80;;;21.70;99.90;;;;;;5070970;28;20607;-89
2022/06/22 13:38:02;;;;;;;1.70;1.60;;;21.90;99.90;;;;;;5069793;28;21175;-89
2022/06/22 13:40:48;;;;;;;4.63;1.93;;;21.90;99.90;;;;;;5059029;28;20625;-89
2022/06/22 13:43:30;;;;;;;1.53;1.37;;;22.00;99.90;;;;;;5051305;28;20854;-90
2022/06/22 13:46:16;;;;;;;1.53;1.43;;;22.10;99.90;;;;;;5050407;28;20625;-90
2022/06/22 13:48:50;;;;;;;1.70;1.60;;;22.50;99.90;;;;;;5050183;28;20663;-89
2022/06/22 13:51:44;;;;;;;1.87;1.43;;;22.40;99.90;;;;;;5050228;28;20701;-89
2022/06/22 13:54:35;;;;;;;1.50;1.20;;;22.30;99.90;;;;;;5049956;28;21516;-88
2022/06/22 13:57:12;;;;;;;1.97;1.57;;;22.10;99.90;;;;;;5064463;28;20690;-89
2022/06/22 13:59:48;;;;;;;1.63;1.53;;;22.50;99.90;;;;;;5070201;28;20627;-89
2022/06/22 14:02:22;;;;;;;1.37;1.27;;;23.00;99.90;;;;;;5072130;28;20623;-88
2022/06/22 14:04:56;;;;;;;2.20;1.50;;;23.50;99.90;;;;;;5072547;28;20624;-88
2022/06/22 14:07:29;;;;;;;2.17;1.50;;;24.00;99.90;;;;;;5070659;28;20734;-89
2022/06/22 14:10:18;;;;;;;1.83;1.60;;;24.20;98.50;;;;;;5069991;28;20984;-89
2022/06/22 14:12:54;;;;;;;0.87;0.87;;;24.20;97.60;;;;;;5069511;28;20625;-89
2022/06/22 14:15:29;;;;;;;1.43;1.33;;;24.20;99.10;;;;;;5070224;28;20629;-88
2022/06/22 14:18:01;;;;;;;3.70;1.70;;;23.70;98.40;;;;;;5069582;28;20690;-88
2022/06/22 14:20:33;;;;;;;2.10;1.77;;;23.50;98.90;;;;;;5069249;28;20716;-89
2022/06/22 14:23:04;;;;;;;4.63;1.87;;;23.50;99.90;;;;;;5069763;28;20624;-88
2022/06/22 14:25:42;;;;;;;2.97;1.50;;;23.20;98.90;;;;;;5069773;28;20686;-89
2022/06/22 14:28:16;;;;;;;1.77;1.57;;;23.30;99.90;;;;;;5068559;28;20668;-89
2022/06/22 14:31:25;;;;;;;3.00;1.30;;;23.30;99.60;;;;;;5069700;28;20621;-90
2022/06/22 14:34:08;;;;;;;2.20;1.37;;;23.50;99.90;;;;;;5064353;28;20637;-89
2022/06/22 14:36:40;;;;;;;2.53;2.40;;;23.40;99.10;;;;;;5068701;28;21058;-89